createdAt,value
2018-06-01T00:01:05.959Z,22.35
2018-06-01T00:03:33.360Z,22.40
2018-06-01T00:06:00.750Z,22.43
2018-06-01T00:08:29.112Z,22.47
2018-06-01T00:10:56.503Z,22.50
2018-06-01T00:13:23.890Z,22.56
2018-06-01T00:15:51.518Z,22.58
2018-06-01T00:18:18.911Z,22.60
2018-06-01T00:20:46.296Z,22.62
2018-06-01T00:23:13.715Z,22.64
2018-06-01T00:25:41.098Z,22.64
2018-06-01T00:28:08.487Z,22.64
2018-06-01T00:30:35.919Z,22.65
2018-06-01T00:33:03.303Z,22.57
2018-06-01T00:35:30.695Z,22.47
2018-06-01T00:37:58.087Z,22.38
2018-06-01T00:40:25.479Z,22.38
2018-06-01T00:42:52.866Z,22.31
2018-06-01T00:45:20.259Z,22.26
2018-06-01T00:47:47.662Z,22.30
2018-06-01T00:50:15.047Z,22.33
2018-06-01T00:52:42.439Z,22.32
2018-06-01T00:55:21.678Z,22.42
2018-06-01T00:57:49.067Z,22.46
2018-06-01T01:00:16.450Z,22.44
2018-06-01T01:02:43.847Z,22.46
2018-06-01T01:05:11.235Z,22.42
2018-06-01T01:07:38.631Z,22.43
2018-06-01T01:10:06.029Z,22.41
2018-06-01T01:12:33.434Z,22.41
2018-06-01T01:15:00.823Z,22.36
2018-06-01T01:17:28.220Z,22.40
2018-06-01T01:19:55.602Z,22.34
2018-06-01T01:22:23.003Z,22.30
2018-06-01T01:24:50.395Z,22.28
2018-06-01T01:27:17.798Z,22.31
2018-06-01T01:29:45.207Z,22.37
2018-06-01T01:32:12.592Z,22.39
2018-06-01T01:34:39.988Z,22.40
2018-06-01T01:37:07.383Z,22.41
2018-06-01T01:39:34.774Z,22.41
2018-06-01T01:42:02.158Z,22.44
2018-06-01T01:44:29.555Z,22.45
2018-06-01T01:46:56.951Z,22.45
2018-06-01T01:49:24.342Z,22.47
2018-06-01T01:51:51.722Z,22.46
2018-06-01T01:54:19.120Z,22.46
2018-06-01T01:56:46.513Z,22.43
2018-06-01T01:59:13.912Z,22.46
2018-06-01T02:01:41.299Z,22.46
2018-06-01T02:04:08.690Z,22.44
2018-06-01T02:06:36.083Z,22.35
2018-06-01T02:09:03.475Z,22.10
2018-06-01T02:11:30.884Z,21.85
2018-06-01T02:13:58.277Z,21.79
2018-06-01T02:16:25.691Z,21.76
2018-06-01T02:18:53.075Z,21.67
2018-06-01T02:21:20.472Z,21.66
2018-06-01T02:23:47.859Z,21.72
2018-06-01T02:26:15.255Z,21.70
2018-06-01T02:28:42.643Z,21.79
2018-06-01T02:31:10.043Z,21.75
2018-06-01T02:33:37.436Z,21.82
2018-06-01T02:36:04.838Z,21.84
2018-06-01T02:38:32.224Z,21.94
2018-06-01T02:40:59.620Z,22.00
2018-06-01T02:43:27.018Z,22.03
2018-06-01T02:45:54.410Z,22.05
2018-06-01T02:48:21.795Z,22.03
2018-06-01T02:50:49.178Z,21.85
2018-06-01T02:53:16.567Z,21.74
2018-06-01T02:55:43.951Z,21.56
2018-06-01T02:58:11.345Z,21.50
2018-06-01T03:00:38.731Z,21.46
2018-06-01T03:03:06.119Z,21.50
2018-06-01T03:05:33.523Z,21.53
2018-06-01T03:08:00.915Z,21.66
2018-06-01T03:10:28.306Z,21.72
2018-06-01T03:12:55.702Z,21.79
2018-06-01T03:15:23.091Z,21.83
2018-06-01T03:17:50.500Z,21.91
2018-06-01T03:20:17.882Z,21.94
2018-06-01T03:22:45.271Z,21.95
2018-06-01T03:25:12.667Z,21.92
2018-06-01T03:27:40.056Z,21.99
2018-06-01T03:30:07.443Z,22.03
2018-06-01T03:32:34.847Z,22.02
2018-06-01T03:35:02.274Z,22.08
2018-06-01T03:37:29.635Z,22.05
2018-06-01T03:39:57.023Z,22.03
2018-06-01T03:42:24.419Z,22.05
2018-06-01T03:44:51.802Z,22.05
2018-06-01T03:47:19.205Z,21.96
2018-06-01T03:49:46.595Z,21.91
2018-06-01T03:52:13.992Z,21.89
2018-06-01T03:54:41.379Z,21.86
2018-06-01T03:57:08.767Z,21.74
2018-06-01T03:59:36.167Z,21.65
2018-06-01T04:02:03.555Z,21.51
2018-06-01T04:04:30.951Z,21.34
2018-06-01T04:06:58.362Z,21.19
2018-06-01T04:09:28.723Z,21.06
2018-06-01T04:11:56.110Z,20.94
2018-06-01T04:14:23.498Z,20.81
2018-06-01T04:16:50.935Z,20.65
2018-06-01T04:19:18.339Z,20.52
2018-06-01T04:21:45.714Z,20.40
2018-06-01T04:24:13.106Z,20.24
2018-06-01T04:26:40.500Z,20.20
2018-06-01T04:29:07.895Z,20.04
2018-06-01T04:31:35.319Z,19.81
2018-06-01T04:34:02.711Z,19.75
2018-06-01T04:36:30.122Z,19.74
2018-06-01T04:38:57.510Z,19.80
2018-06-01T04:41:25.094Z,19.83
2018-06-01T04:43:52.490Z,19.75
2018-06-01T04:46:19.896Z,19.79
2018-06-01T04:48:47.282Z,19.75
2018-06-01T04:51:14.687Z,19.74
2018-06-01T04:53:42.071Z,19.76
2018-06-01T04:56:09.489Z,19.70
2018-06-01T04:58:36.863Z,19.72
2018-06-01T05:01:04.259Z,19.79
2018-06-01T05:03:31.656Z,19.83
2018-06-01T05:05:59.039Z,19.81
2018-06-01T05:08:26.434Z,19.72
2018-06-01T05:10:53.842Z,19.71
2018-06-01T05:13:21.227Z,19.74
2018-06-01T05:15:48.914Z,19.70
2018-06-01T05:18:16.310Z,19.66
2018-06-01T05:20:43.703Z,19.60
2018-06-01T05:23:11.115Z,19.70
2018-06-01T05:25:38.507Z,19.73
2018-06-01T05:28:05.898Z,19.73
2018-06-01T05:30:33.298Z,19.61
2018-06-01T05:33:00.693Z,19.52
2018-06-01T05:35:28.145Z,19.53
2018-06-01T05:37:55.492Z,19.50
2018-06-01T05:40:22.886Z,19.54
2018-06-01T05:42:50.304Z,19.52
2018-06-01T05:45:17.698Z,19.49
2018-06-01T05:47:45.091Z,19.41
2018-06-01T05:50:12.872Z,19.45
2018-06-01T05:52:40.263Z,19.57
2018-06-01T05:55:07.655Z,19.61
2018-06-01T05:57:35.060Z,19.62
2018-06-01T06:00:02.451Z,19.70
2018-06-01T06:02:29.856Z,19.73
2018-06-01T06:04:57.252Z,19.70
2018-06-01T06:07:24.646Z,19.79
2018-06-01T06:09:52.039Z,19.80
2018-06-01T06:12:19.446Z,19.90
2018-06-01T06:14:46.839Z,19.98
2018-06-01T06:17:14.234Z,20.11
2018-06-01T06:19:41.627Z,20.12
2018-06-01T06:22:09.032Z,20.11
2018-06-01T06:24:36.438Z,20.24
2018-06-01T06:27:03.831Z,20.28
2018-06-01T06:29:31.238Z,20.34
2018-06-01T06:31:58.627Z,20.29
2018-06-01T06:34:26.039Z,20.38
2018-06-01T06:36:53.432Z,20.43
2018-06-01T06:39:20.831Z,20.45
2018-06-01T06:41:48.229Z,20.56
2018-06-01T06:44:15.623Z,20.50
2018-06-01T06:46:43.035Z,20.65
2018-06-01T06:49:10.439Z,20.75
2018-06-01T06:51:37.835Z,20.89
2018-06-01T06:54:05.231Z,21.01
2018-06-01T06:56:32.631Z,21.11
2018-06-01T06:59:00.019Z,21.20
2018-06-01T07:01:27.423Z,21.20
2018-06-01T07:03:54.810Z,21.17
2018-06-01T07:06:22.207Z,21.12
2018-06-01T07:08:49.610Z,21.21
2018-06-01T07:11:17.079Z,21.22
2018-06-01T07:13:44.474Z,21.26
2018-06-01T07:16:11.867Z,21.27
2018-06-01T07:18:39.264Z,21.22
2018-06-01T07:21:06.664Z,21.17
2018-06-01T07:23:34.062Z,21.18
2018-06-01T07:26:01.447Z,21.11
2018-06-01T07:28:28.853Z,21.03
2018-06-01T07:30:56.242Z,20.89
2018-06-01T07:33:23.670Z,20.79
2018-06-01T07:35:51.047Z,20.67
2018-06-01T07:38:18.479Z,20.65
2018-06-01T07:40:45.874Z,20.71
2018-06-01T07:43:13.267Z,20.68
2018-06-01T07:45:40.667Z,20.50
2018-06-01T07:48:08.071Z,20.43
2018-06-01T07:50:35.467Z,20.45
2018-06-01T07:53:02.858Z,20.50
2018-06-01T07:55:30.266Z,20.52
2018-06-01T07:57:57.653Z,20.52
2018-06-01T08:00:25.051Z,20.57
2018-06-01T08:02:52.447Z,20.55
2018-06-01T08:05:19.859Z,20.42
2018-06-01T08:07:47.239Z,20.33
2018-06-01T08:10:14.636Z,20.25
2018-06-01T08:12:42.051Z,20.27
2018-06-01T08:15:09.472Z,20.33
2018-06-01T08:17:36.867Z,20.27
2018-06-01T08:20:04.267Z,20.12
2018-06-01T08:22:31.663Z,20.08
2018-06-01T08:24:59.055Z,20.06
2018-06-01T08:27:26.666Z,20.05
2018-06-01T08:29:54.059Z,20.07
2018-06-01T08:32:21.508Z,19.92
2018-06-01T08:34:48.875Z,19.70
2018-06-01T08:37:16.311Z,19.69
2018-06-01T08:39:43.687Z,19.60
2018-06-01T08:42:11.100Z,19.60
2018-06-01T08:44:38.495Z,19.62
2018-06-01T08:47:05.891Z,19.59
2018-06-01T08:49:33.287Z,19.57
2018-06-01T08:52:00.682Z,19.37
2018-06-01T08:54:28.078Z,19.32
2018-06-01T08:56:55.479Z,19.34
2018-06-01T08:59:22.871Z,19.43
2018-06-01T09:01:50.263Z,19.38
2018-06-01T09:04:17.663Z,19.38
2018-06-01T09:06:45.052Z,19.49
2018-06-01T09:09:12.618Z,19.63
2018-06-01T09:11:40.010Z,19.76
2018-06-01T09:14:07.399Z,19.84
2018-06-01T09:16:34.798Z,19.88
2018-06-01T09:19:02.190Z,19.92
2018-06-01T09:21:29.596Z,19.93
2018-06-01T09:23:56.984Z,20.06
2018-06-01T09:26:24.378Z,20.27
2018-06-01T09:28:51.771Z,20.53
2018-06-01T09:31:19.171Z,20.64
2018-06-01T09:33:46.566Z,20.78
2018-06-01T09:36:13.966Z,20.79
2018-06-01T09:38:41.355Z,20.90
2018-06-01T09:41:08.754Z,21.00
2018-06-01T09:43:36.164Z,21.09
2018-06-01T09:46:03.556Z,21.07
2018-06-01T09:48:31.115Z,21.03
2018-06-01T09:50:58.509Z,21.03
2018-06-01T09:53:25.911Z,21.07
2018-06-01T09:55:53.303Z,21.14
2018-06-01T09:58:20.702Z,21.18
2018-06-01T10:00:53.783Z,21.12
2018-06-01T10:03:21.178Z,21.08
2018-06-01T10:05:48.575Z,21.21
2018-06-01T10:08:15.983Z,21.31
2018-06-01T10:10:43.376Z,21.35
2018-06-01T10:13:10.779Z,21.45
2018-06-01T10:15:38.220Z,21.60
2018-06-01T10:18:05.598Z,21.67
2018-06-01T10:20:35.629Z,21.52
2018-06-01T10:23:03.022Z,21.42
2018-06-01T10:25:30.426Z,21.34
2018-06-01T10:27:58.290Z,21.30
2018-06-01T10:30:25.715Z,21.33
2018-06-01T10:32:53.121Z,21.37
2018-06-01T10:35:20.490Z,21.33
2018-06-01T10:37:47.890Z,21.24
2018-06-01T10:40:15.283Z,21.24
2018-06-01T10:42:42.687Z,21.34
2018-06-01T10:45:10.129Z,21.46
2018-06-01T10:47:37.475Z,21.50
2018-06-01T10:50:04.871Z,21.52
2018-06-01T10:52:32.267Z,21.46
2018-06-01T10:54:59.659Z,21.47
2018-06-01T10:57:27.054Z,21.53
2018-06-01T10:59:54.448Z,21.53
2018-06-01T11:02:21.851Z,21.63
2018-06-01T11:04:49.246Z,21.61
2018-06-01T11:07:16.651Z,21.51
2018-06-01T11:09:44.047Z,21.40
2018-06-01T11:12:11.504Z,21.41
2018-06-01T11:14:38.899Z,21.46
2018-06-01T11:17:06.304Z,21.44
2018-06-01T11:19:33.700Z,21.45
2018-06-01T11:22:01.099Z,21.33
2018-06-01T11:24:28.503Z,21.32
2018-06-01T11:26:55.941Z,21.34
2018-06-01T11:29:23.302Z,21.34
2018-06-01T11:31:50.698Z,21.33
2018-06-01T11:34:18.102Z,21.27
2018-06-01T11:36:45.495Z,21.16
2018-06-01T11:39:12.896Z,21.10
2018-06-01T11:41:40.287Z,21.09
2018-06-01T11:44:07.682Z,21.05
2018-06-01T11:46:35.080Z,21.03
2018-06-01T11:49:02.470Z,21.01
2018-06-01T11:51:29.921Z,20.94
2018-06-01T11:53:57.259Z,20.86
2018-06-01T11:56:24.651Z,20.74
2018-06-01T11:58:52.046Z,20.66
2018-06-01T12:01:19.447Z,20.65
2018-06-01T12:03:46.844Z,20.61
2018-06-01T12:06:14.239Z,20.58
2018-06-01T12:08:41.637Z,20.58
2018-06-01T12:11:09.031Z,20.51
2018-06-01T12:13:36.427Z,20.54
2018-06-01T12:16:03.822Z,20.61
2018-06-01T12:18:31.223Z,20.64
2018-06-01T12:20:58.694Z,20.66
2018-06-01T12:23:26.102Z,20.66
2018-06-01T12:25:53.674Z,20.66
2018-06-01T12:28:21.076Z,20.62
2018-06-01T12:30:50.054Z,20.55
2018-06-01T12:33:17.467Z,20.46
2018-06-01T12:35:44.867Z,20.41
2018-06-01T12:38:12.327Z,20.30
2018-06-01T12:40:39.729Z,20.21
2018-06-01T12:43:07.122Z,20.22
2018-06-01T12:45:34.520Z,20.25
2018-06-01T12:48:02.920Z,20.25
2018-06-01T12:50:30.318Z,20.27
2018-06-01T12:52:57.751Z,20.13
2018-06-01T12:55:25.159Z,20.12
2018-06-01T12:57:52.555Z,20.10
2018-06-01T13:00:20.245Z,20.01
2018-06-01T13:02:47.763Z,19.99
2018-06-01T13:05:15.150Z,19.90
2018-06-01T13:07:42.552Z,19.92
2018-06-01T13:10:09.940Z,19.92
2018-06-01T13:12:37.346Z,19.84
2018-06-01T13:15:04.728Z,19.83
2018-06-01T13:17:32.183Z,19.80
2018-06-01T13:19:59.615Z,19.80
2018-06-01T13:22:27.011Z,19.86
2018-06-01T13:24:54.406Z,19.87
2018-06-01T13:27:21.858Z,19.88
2018-06-01T13:29:49.289Z,19.94
2018-06-01T13:32:16.663Z,19.90
2018-06-01T13:34:44.057Z,19.96
2018-06-01T13:37:11.482Z,19.98
2018-06-01T13:39:38.897Z,20.00
2018-06-01T13:42:06.271Z,20.02
2018-06-01T13:44:33.667Z,19.98
2018-06-01T13:47:01.067Z,19.91
2018-06-01T13:49:28.475Z,19.91
2018-06-01T13:51:55.925Z,19.89
2018-06-01T13:54:23.356Z,19.86
2018-06-01T13:56:50.798Z,19.78
2018-06-01T13:59:18.611Z,19.69
2018-06-01T14:01:45.998Z,19.64
2018-06-01T14:04:13.426Z,19.64
2018-06-01T14:06:40.825Z,19.67
2018-06-01T14:09:08.243Z,19.65
2018-06-01T14:11:35.643Z,19.62
2018-06-01T14:14:03.031Z,19.60
2018-06-01T14:16:30.431Z,19.59
2018-06-01T14:18:57.836Z,19.60
2018-06-01T14:21:25.260Z,19.65
2018-06-01T14:23:52.688Z,19.59
2018-06-01T14:26:20.078Z,19.55
2018-06-01T14:28:47.477Z,19.56
2018-06-01T14:31:14.867Z,19.55
2018-06-01T14:33:42.284Z,19.56
2018-06-01T14:36:09.675Z,19.56
2018-06-01T14:38:37.072Z,19.55
2018-06-01T14:41:04.460Z,19.55
2018-06-01T14:43:31.855Z,19.53
2018-06-01T14:45:59.247Z,19.57
2018-06-01T14:48:26.654Z,19.50
2018-06-01T14:50:54.060Z,19.57
2018-06-01T14:53:21.452Z,19.52
2018-06-01T14:55:48.864Z,19.54
2018-06-01T14:58:16.252Z,19.53
2018-06-01T15:00:43.656Z,19.54
2018-06-01T15:03:11.051Z,19.53
2018-06-01T15:05:38.443Z,19.56
2018-06-01T15:08:05.842Z,19.64
2018-06-01T15:10:33.241Z,19.68
2018-06-01T15:13:00.637Z,19.72
2018-06-01T15:15:28.035Z,19.68
2018-06-01T15:17:55.430Z,19.57
2018-06-01T15:20:22.848Z,19.46
2018-06-01T15:22:50.231Z,19.49
2018-06-01T15:25:17.632Z,19.46
2018-06-01T15:27:45.023Z,19.50
2018-06-01T15:30:12.583Z,19.42
2018-06-01T15:32:39.991Z,19.35
2018-06-01T15:35:07.407Z,19.35
2018-06-01T15:37:34.801Z,19.31
2018-06-01T15:40:02.224Z,19.38
2018-06-01T15:42:29.630Z,19.38
2018-06-01T15:44:57.021Z,19.41
2018-06-01T15:47:24.435Z,19.42
2018-06-01T15:49:51.864Z,19.40
2018-06-01T15:52:19.256Z,19.46
2018-06-01T15:54:46.666Z,19.35
2018-06-01T15:57:14.069Z,19.29
2018-06-01T15:59:41.496Z,19.27
2018-06-01T16:02:08.896Z,19.27
2018-06-01T16:04:36.307Z,19.17
2018-06-01T16:07:03.703Z,19.20
2018-06-01T16:09:31.100Z,19.10
2018-06-01T16:11:58.495Z,19.18
2018-06-01T16:14:25.920Z,19.19
2018-06-01T16:16:53.483Z,19.15
2018-06-01T16:19:20.875Z,19.13
2018-06-01T16:21:48.284Z,19.15
2018-06-01T16:24:15.693Z,19.17
2018-06-01T16:26:43.087Z,19.15
2018-06-01T16:29:10.491Z,19.17
2018-06-01T16:31:37.896Z,19.24
2018-06-01T16:34:05.299Z,19.18
2018-06-01T16:36:32.915Z,19.17
2018-06-01T16:39:00.312Z,19.20
2018-06-01T16:41:27.739Z,19.09
2018-06-01T16:43:55.147Z,19.00
2018-06-01T16:46:22.541Z,18.92
2018-06-01T16:48:49.944Z,18.93
2018-06-01T16:51:17.338Z,18.94
2018-06-01T16:53:44.756Z,18.87
2018-06-01T16:56:12.150Z,18.83
2018-06-01T16:58:39.560Z,18.70
2018-06-01T17:01:06.955Z,18.59
2018-06-01T17:03:34.448Z,18.62
2018-06-01T17:06:01.892Z,18.62
2018-06-01T17:08:29.343Z,18.55
2018-06-01T17:10:56.934Z,18.60
2018-06-01T17:13:24.331Z,18.55
2018-06-01T17:15:51.731Z,18.54
2018-06-01T17:18:19.136Z,18.54
2018-06-01T17:20:46.555Z,18.49
2018-06-01T17:23:13.950Z,18.49
2018-06-01T17:25:41.355Z,18.48
2018-06-01T17:28:09.132Z,18.41
2018-06-01T17:30:36.526Z,18.45
2018-06-01T17:33:03.923Z,18.46
2018-06-01T17:35:31.320Z,18.50
2018-06-01T17:37:58.734Z,18.42
2018-06-01T17:40:26.123Z,18.50
2018-06-01T17:42:53.523Z,18.52
2018-06-01T17:45:20.923Z,18.45
2018-06-01T17:47:48.326Z,18.50
2018-06-01T17:50:15.722Z,18.46
2018-06-01T17:52:43.118Z,18.46
2018-06-01T17:55:10.951Z,18.46
2018-06-01T17:57:38.343Z,18.42
2018-06-01T18:00:05.807Z,18.38
2018-06-01T18:02:33.134Z,18.35
2018-06-01T18:05:00.527Z,18.43
2018-06-01T18:07:27.922Z,18.44
2018-06-01T18:09:55.319Z,18.45
2018-06-01T18:12:22.715Z,18.43
2018-06-01T18:14:50.141Z,18.36
2018-06-01T18:17:17.530Z,18.34
2018-06-01T18:19:44.931Z,18.36
2018-06-01T18:22:12.339Z,18.27
2018-06-01T18:24:39.734Z,18.32
2018-06-01T18:27:07.214Z,18.28
2018-06-01T18:29:34.611Z,18.29
2018-06-01T18:32:02.067Z,18.30
2018-06-01T18:34:29.457Z,18.28
2018-06-01T18:36:56.859Z,18.30
2018-06-01T18:39:24.249Z,18.23
2018-06-01T18:41:51.849Z,18.20
2018-06-01T18:44:19.219Z,18.19
2018-06-01T18:46:46.619Z,18.22
2018-06-01T18:49:14.016Z,18.27
2018-06-01T18:51:41.404Z,18.29
2018-06-01T18:54:08.798Z,18.33
2018-06-01T18:56:36.196Z,18.33
2018-06-01T18:59:03.594Z,18.40
2018-06-01T19:01:31.004Z,18.44
2018-06-01T19:03:58.398Z,18.46
2018-06-01T19:06:25.795Z,18.51
2018-06-01T19:08:53.187Z,18.55
2018-06-01T19:11:20.597Z,18.55
2018-06-01T19:13:47.985Z,18.62
2018-06-01T19:16:15.382Z,18.59
2018-06-01T19:18:42.778Z,18.62
2018-06-01T19:21:10.179Z,18.62
2018-06-01T19:23:37.575Z,18.63
2018-06-01T19:26:04.959Z,18.65
2018-06-01T19:28:33.638Z,18.68
2018-06-01T19:31:01.031Z,18.69
2018-06-01T19:33:28.481Z,18.67
2018-06-01T19:35:55.857Z,18.67
2018-06-01T19:38:23.650Z,18.66
2018-06-01T19:40:51.050Z,18.65
2018-06-01T19:43:18.451Z,18.67
2018-06-01T19:45:45.846Z,18.67
2018-06-01T19:48:13.234Z,18.72
2018-06-01T19:50:40.643Z,18.71
2018-06-01T19:53:08.040Z,18.71
2018-06-01T19:55:35.440Z,18.70
2018-06-01T19:58:02.841Z,18.74
2018-06-01T20:00:30.251Z,18.80
2018-06-01T20:02:57.649Z,18.79
2018-06-01T20:05:25.043Z,18.75
2018-06-01T20:07:52.455Z,18.81
2018-06-01T20:10:19.853Z,18.79
2018-06-01T20:12:47.255Z,18.80
2018-06-01T20:15:14.652Z,18.81
2018-06-01T20:17:42.062Z,18.81
2018-06-01T20:20:09.455Z,18.82
2018-06-01T20:22:36.868Z,18.82
2018-06-01T20:25:04.315Z,18.84
2018-06-01T20:27:31.714Z,18.82
2018-06-01T20:29:59.115Z,18.81
2018-06-01T20:32:26.508Z,18.84
2018-06-01T20:34:53.910Z,18.79
2018-06-01T20:37:21.307Z,18.80
2018-06-01T20:39:48.708Z,18.83
2018-06-01T20:42:16.099Z,18.84
2018-06-01T20:44:43.490Z,18.79
2018-06-01T20:47:10.955Z,18.77
2018-06-01T20:49:38.354Z,18.78
2018-06-01T20:52:05.749Z,18.78
2018-06-01T20:54:33.139Z,18.79
2018-06-01T20:57:00.534Z,18.77
2018-06-01T20:59:27.922Z,18.77
2018-06-01T21:01:55.358Z,18.77
2018-06-01T21:04:22.755Z,18.80
2018-06-01T21:06:50.161Z,18.79
2018-06-01T21:09:17.555Z,18.79
2018-06-01T21:11:44.969Z,18.81
2018-06-01T21:14:12.372Z,18.78
2018-06-01T21:16:39.766Z,18.81
2018-06-01T21:19:07.163Z,18.79
2018-06-01T21:21:34.853Z,18.77
2018-06-01T21:24:02.252Z,18.78
2018-06-01T21:26:29.639Z,18.76
2018-06-01T21:28:57.037Z,18.75
2018-06-01T21:31:24.427Z,18.73
2018-06-01T21:33:51.827Z,18.75
2018-06-01T21:36:19.220Z,18.72
2018-06-01T21:38:46.631Z,18.74
2018-06-01T21:41:14.023Z,18.73
2018-06-01T21:43:41.415Z,18.72
2018-06-01T21:46:08.812Z,18.73
2018-06-01T21:48:36.211Z,18.71
2018-06-01T21:51:03.612Z,18.69
2018-06-01T21:53:30.999Z,18.62
2018-06-01T21:55:58.405Z,18.63
2018-06-01T21:58:25.798Z,18.55
2018-06-01T22:00:53.210Z,18.52
2018-06-01T22:03:20.602Z,18.47
2018-06-01T22:05:47.999Z,18.39
2018-06-01T22:08:15.408Z,18.35
2018-06-01T22:10:42.798Z,18.38
2018-06-01T22:13:10.196Z,18.37
2018-06-01T22:15:37.598Z,18.29
2018-06-01T22:18:04.995Z,18.36
2018-06-01T22:20:32.394Z,18.40
2018-06-01T22:22:59.814Z,18.36
2018-06-01T22:25:27.213Z,18.36
2018-06-01T22:27:55.068Z,18.31
2018-06-01T22:30:22.471Z,18.33
2018-06-01T22:32:50.035Z,18.31
2018-06-01T22:35:17.439Z,18.26
2018-06-01T22:37:44.894Z,18.28
2018-06-01T22:40:12.300Z,18.31
2018-06-01T22:42:39.695Z,18.30
2018-06-01T22:45:07.091Z,18.30
2018-06-01T22:47:34.590Z,18.29
2018-06-01T22:50:01.987Z,18.32
2018-06-01T22:52:29.387Z,18.29
2018-06-01T22:54:56.783Z,18.28
2018-06-01T22:57:24.182Z,18.27
2018-06-01T22:59:51.582Z,18.31
2018-06-01T23:02:18.976Z,18.32
2018-06-01T23:04:46.377Z,18.36
2018-06-01T23:07:13.771Z,18.35
2018-06-01T23:09:41.170Z,18.32
2018-06-01T23:12:08.568Z,18.28
2018-06-01T23:14:36.005Z,18.28
2018-06-01T23:17:03.371Z,18.21
2018-06-01T23:19:30.922Z,18.28
2018-06-01T23:21:58.327Z,18.26
2018-06-01T23:24:25.839Z,18.27
2018-06-01T23:26:53.246Z,18.24
2018-06-01T23:29:20.647Z,18.28
2018-06-01T23:31:48.059Z,18.28
2018-06-01T23:34:15.442Z,18.29
2018-06-01T23:36:42.899Z,18.26
2018-06-01T23:39:10.295Z,18.21
2018-06-01T23:41:37.708Z,18.18
2018-06-01T23:44:05.108Z,18.20
2018-06-01T23:46:32.498Z,18.20
2018-06-01T23:48:59.899Z,18.20
2018-06-01T23:51:27.298Z,18.27
2018-06-01T23:53:54.742Z,18.18
2018-06-01T23:56:22.138Z,18.19
2018-06-01T23:58:49.531Z,18.18
